Time;durP1;ratioP1;P1;durP2;ratioP2;P2;SDS_P1;SDS_P2;PMS_P1;PMS_P2;Temp;Humidity;BMP_temperature;BMP_pressure;BME280_temperature;BME280_humidity;BME280_pressure;Samples;Min_cycle;Max_cycle;Signal;HPM_P1;HPM_P2
2023/06/01 00:00:14;;;;;;;5.67;2.60;;;19.30;1.00;;;;;;4988390;28;20940;-75
2023/06/01 00:02:42;;;;;;;4.80;2.77;;;19.20;1.00;;;;;;4987750;28;20451;-75
2023/06/01 00:05:09;;;;;;;2.73;2.33;;;19.20;1.00;;;;;;4990107;28;20476;-76
2023/06/01 00:07:36;;;;;;;4.90;3.10;;;19.20;1.00;;;;;;4988531;28;20483;-74
2023/06/01 00:10:03;;;;;;;4.47;2.53;;;19.10;1.00;;;;;;4987538;28;20916;-76
2023/06/01 00:12:30;;;;;;;3.00;2.70;;;19.00;1.00;;;;;;4984291;28;20493;-76
2023/06/01 00:14:57;;;;;;;5.80;2.63;;;19.00;1.00;;;;;;4986911;28;20472;-74
2023/06/01 00:17:24;;;;;;;4.70;2.70;;;19.00;1.00;;;;;;4988535;28;20462;-75
2023/06/01 00:19:53;;;;;;;7.63;2.80;;;19.00;1.00;;;;;;4988651;28;20483;-74
2023/06/01 00:22:20;;;;;;;4.90;2.93;;;18.90;1.00;;;;;;4990702;28;20458;-75
2023/06/01 00:24:47;;;;;;;4.07;2.97;;;18.90;1.00;;;;;;4988997;28;20470;-76
2023/06/01 00:27:14;;;;;;;3.83;2.53;;;18.80;1.00;;;;;;4988286;28;20585;-76
2023/06/01 00:29:41;;;;;;;3.40;2.60;;;18.80;1.00;;;;;;4988482;28;20565;-75
2023/06/01 00:32:08;;;;;;;2.90;2.60;;;18.70;1.00;;;;;;4989703;28;20819;-76
2023/06/01 00:34:35;;;;;;;4.40;2.37;;;18.70;1.00;;;;;;4988032;28;20495;-77
2023/06/01 00:37:03;;;;;;;3.00;2.77;;;18.60;1.00;;;;;;4990139;28;20464;-76
2023/06/01 00:39:30;;;;;;;3.27;2.50;;;18.60;1.00;;;;;;4988279;28;20489;-76
2023/06/01 00:41:57;;;;;;;5.03;2.67;;;18.60;1.00;;;;;;4987838;28;20884;-75
2023/06/01 00:44:24;;;;;;;3.27;2.33;;;18.60;1.00;;;;;;4990370;28;20549;-75
2023/06/01 00:46:51;;;;;;;3.63;2.53;;;18.60;1.00;;;;;;4987017;28;20530;-75
2023/06/01 00:49:19;;;;;;;3.27;2.80;;;18.50;1.00;;;;;;4979594;28;21924;-76
2023/06/01 00:51:46;;;;;;;2.97;2.07;;;18.50;1.00;;;;;;4984898;28;20528;-75
2023/06/01 00:54:14;;;;;;;5.07;2.63;;;18.40;1.00;;;;;;4984501;28;20544;-76
2023/06/01 00:56:41;;;;;;;5.87;2.93;;;18.30;1.00;;;;;;4989890;28;20476;-74
2023/06/01 00:59:08;;;;;;;5.53;3.13;;;18.30;1.00;;;;;;4983683;28;21008;-76
2023/06/01 01:01:36;;;;;;;5.50;2.77;;;18.20;1.00;;;;;;4981335;28;20498;-76
2023/06/01 01:04:04;;;;;;;4.23;3.10;;;18.20;1.00;;;;;;4984488;28;20458;-76
2023/06/01 01:06:41;;;;;;;4.80;2.93;;;18.20;1.00;;;;;;4986443;28;20453;-76
2023/06/01 01:09:21;;;;;;;3.57;3.20;;;18.10;1.00;;;;;;4982753;28;20480;-76
2023/06/01 01:11:54;;;;;;;2.90;2.57;;;18.10;1.00;;;;;;4986045;28;20984;-75
2023/06/01 01:14:24;;;;;;;4.00;3.30;;;18.00;1.00;;;;;;4982335;28;20496;-76
2023/06/01 01:16:59;;;;;;;3.10;2.60;;;18.00;1.00;;;;;;4985980;28;20524;-75
2023/06/01 01:19:54;;;;;;;4.47;3.60;;;18.00;1.00;;;;;;4988018;28;20465;-76
2023/06/01 01:22:34;;;;;;;4.57;2.67;;;17.90;1.00;;;;;;4985289;28;20926;-75
2023/06/01 01:25:31;;;;;;;5.00;2.30;;;17.90;1.00;;;;;;4981077;28;20469;-75
2023/06/01 01:28:10;;;;;;;4.83;3.07;;;17.80;1.00;;;;;;4984290;28;20876;-75
2023/06/01 01:30:42;;;;;;;5.80;2.93;;;17.80;1.00;;;;;;4983851;28;20999;-75
2023/06/01 01:33:10;;;;;;;3.27;2.50;;;17.70;1.00;;;;;;4978994;28;20576;-76
2023/06/01 01:35:39;;;;;;;4.37;2.90;;;17.70;1.00;;;;;;4982327;28;20518;-76
2023/06/01 01:38:06;;;;;;;4.57;3.17;;;17.70;1.00;;;;;;4985487;28;20543;-76
2023/06/01 01:40:33;;;;;;;8.00;3.47;;;17.60;1.00;;;;;;4983869;28;20563;-75
2023/06/01 01:43:01;;;;;;;4.27;3.30;;;17.60;1.00;;;;;;4983570;28;20570;-75
2023/06/01 01:45:28;;;;;;;4.87;3.20;;;17.50;1.00;;;;;;4984910;28;20472;-76
2023/06/01 01:48:04;;;;;;;3.70;2.80;;;17.50;1.00;;;;;;4988989;28;20465;-75
2023/06/01 01:50:38;;;;;;;4.03;2.73;;;17.50;1.00;;;;;;4986251;28;20479;-76
2023/06/01 01:53:07;;;;;;;3.80;2.73;;;17.40;1.00;;;;;;4986615;28;20487;-74
2023/06/01 01:55:35;;;;;;;4.70;2.40;;;17.40;1.00;;;;;;4986975;28;20571;-75
2023/06/01 01:58:03;;;;;;;3.50;2.90;;;17.30;1.00;;;;;;4987612;28;20542;-75
2023/06/01 02:00:31;;;;;;;4.03;2.97;;;17.30;1.00;;;;;;4988478;28;20979;-75
2023/06/01 02:03:00;;;;;;;3.53;2.67;;;17.20;1.00;;;;;;4985876;28;20994;-76
2023/06/01 02:05:27;;;;;;;8.57;3.70;;;17.10;1.00;;;;;;4970172;28;20519;-76
2023/06/01 02:07:53;;;;;;;3.50;2.97;;;17.10;1.00;;;;;;4969025;28;20631;-75
2023/06/01 02:10:20;;;;;;;5.23;2.93;;;17.10;1.00;;;;;;4966721;28;20526;-75
2023/06/01 02:12:47;;;;;;;4.93;2.97;;;17.00;1.00;;;;;;4966053;28;20555;-75
2023/06/01 02:15:14;;;;;;;3.17;2.87;;;16.90;1.00;;;;;;4970982;28;20560;-76
2023/06/01 02:17:42;;;;;;;4.60;3.47;;;16.90;1.00;;;;;;4969322;28;20471;-74
2023/06/01 02:20:11;;;;;;;3.53;3.17;;;16.80;1.00;;;;;;4961429;28;20590;-76
2023/06/01 02:22:38;;;;;;;3.80;3.27;;;16.80;1.00;;;;;;4969580;28;20559;-75
2023/06/01 02:25:06;;;;;;;5.20;3.40;;;16.60;1.00;;;;;;4970119;28;20559;-76
2023/06/01 02:27:33;;;;;;;5.47;3.77;;;16.60;1.00;;;;;;4966875;28;20540;-76
2023/06/01 02:30:00;;;;;;;5.30;3.90;;;16.50;1.00;;;;;;4971693;28;20552;-75
2023/06/01 02:32:30;;;;;;;6.80;3.57;;;16.50;1.00;;;;;;4967755;28;20469;-76
2023/06/01 02:34:57;;;;;;;6.23;4.27;;;16.40;1.00;;;;;;4971231;28;20526;-76
2023/06/01 02:37:26;;;;;;;8.27;4.57;;;16.40;1.00;;;;;;4971620;28;20514;-75
2023/06/01 02:39:53;;;;;;;5.37;3.53;;;16.40;1.00;;;;;;4968592;28;20483;-75
2023/06/01 02:42:20;;;;;;;10.00;5.13;;;16.40;1.00;;;;;;4968857;28;20462;-74
2023/06/01 02:44:47;;;;;;;4.17;3.63;;;16.30;1.00;;;;;;4972604;28;20484;-76
2023/06/01 02:47:14;;;;;;;6.47;3.47;;;16.20;1.00;;;;;;4970094;28;20575;-76
2023/06/01 02:49:41;;;;;;;3.83;3.50;;;16.20;1.00;;;;;;4965986;28;20476;-75
2023/06/01 02:52:08;;;;;;;5.10;3.90;;;16.20;1.00;;;;;;4966145;28;20491;-74
2023/06/01 02:54:36;;;;;;;5.00;3.73;;;16.10;1.00;;;;;;4971629;28;20495;-75
2023/06/01 02:57:03;;;;;;;7.17;3.90;;;16.10;1.00;;;;;;4968960;28;20647;-75
2023/06/01 02:59:30;;;;;;;4.50;4.10;;;16.00;1.00;;;;;;4969135;28;20478;-75
2023/06/01 03:01:57;;;;;;;7.20;4.10;;;16.00;1.00;;;;;;4967649;28;20464;-74
2023/06/01 03:04:24;;;;;;;9.53;4.33;;;15.90;1.00;;;;;;4977874;28;20545;-76
2023/06/01 03:06:51;;;;;;;5.57;3.80;;;15.70;1.00;;;;;;4986933;28;21311;-76
2023/06/01 03:09:18;;;;;;;4.40;4.00;;;15.70;1.00;;;;;;4988757;28;20497;-76
2023/06/01 03:11:46;;;;;;;11.53;5.03;;;15.70;1.00;;;;;;4989380;28;20459;-76
2023/06/01 03:14:13;;;;;;;8.80;5.07;;;15.70;1.00;;;;;;4989612;28;20620;-76
2023/06/01 03:16:40;;;;;;;9.07;5.17;;;15.70;1.00;;;;;;4991570;28;20517;-76
2023/06/01 03:19:06;;;;;;;5.73;4.50;;;15.60;1.00;;;;;;4988210;28;20533;-76
2023/06/01 03:21:33;;;;;;;5.90;4.07;;;15.60;1.00;;;;;;4986668;28;20450;-76
2023/06/01 03:24:00;;;;;;;5.90;4.60;;;15.50;1.00;;;;;;4979123;28;20499;-76
2023/06/01 03:26:28;;;;;;;5.80;4.60;;;15.50;1.00;;;;;;4984517;28;20481;-75
2023/06/01 03:28:56;;;;;;;7.63;5.20;;;15.40;1.00;;;;;;4982750;28;21251;-76
2023/06/01 03:31:23;;;;;;;7.90;5.53;;;15.30;1.00;;;;;;4984554;28;20484;-76
2023/06/01 03:33:50;;;;;;;10.10;5.30;;;15.30;1.00;;;;;;4980233;28;20594;-76
2023/06/01 03:36:17;;;;;;;6.87;5.10;;;15.20;1.00;;;;;;4982995;28;21002;-76
2023/06/01 03:38:44;;;;;;;8.50;5.90;;;15.20;1.00;;;;;;4983207;28;20479;-75
2023/06/01 03:41:11;;;;;;;7.73;4.87;;;15.10;1.00;;;;;;4983899;28;20466;-76
2023/06/01 03:43:38;;;;;;;6.33;5.20;;;15.10;1.00;;;;;;4986666;28;21066;-76
2023/06/01 03:46:08;;;;;;;6.00;4.90;;;15.10;1.00;;;;;;4986189;28;21343;-75
2023/06/01 03:48:35;;;;;;;9.87;6.30;;;15.00;1.00;;;;;;4985531;28;20562;-77
2023/06/01 03:51:02;;;;;;;10.40;5.77;;;15.00;1.00;;;;;;4987271;28;20466;-76
2023/06/01 03:53:31;;;;;;;8.77;6.70;;;15.00;1.00;;;;;;4988706;28;20567;-76
2023/06/01 03:55:58;;;;;;;10.73;5.80;;;14.90;1.00;;;;;;4984562;28;20440;-75
2023/06/01 03:58:25;;;;;;;9.90;6.17;;;14.80;1.00;;;;;;4985667;28;20955;-75
2023/06/01 04:00:52;;;;;;;9.00;6.43;;;14.80;1.00;;;;;;4986596;28;21053;-76
2023/06/01 04:03:21;;;;;;;8.20;6.70;;;14.70;1.00;;;;;;4988473;28;20468;-76
2023/06/01 04:05:50;;;;;;;6.70;5.53;;;14.70;1.00;;;;;;4983210;28;20442;-75
2023/06/01 04:08:19;;;;;;;9.30;6.50;;;14.60;1.00;;;;;;4984596;28;20576;-75
2023/06/01 04:10:46;;;;;;;9.27;7.67;;;14.60;1.00;;;;;;4984536;28;20451;-75
2023/06/01 04:13:13;;;;;;;7.80;6.47;;;14.60;1.00;;;;;;4980484;28;21044;-75
2023/06/01 04:15:41;;;;;;;9.20;5.83;;;14.60;1.00;;;;;;4986112;28;20474;-76
2023/06/01 04:18:08;;;;;;;8.83;6.17;;;14.50;1.00;;;;;;4985324;28;20484;-76
2023/06/01 04:20:36;;;;;;;10.83;7.33;;;14.60;1.00;;;;;;4987603;28;20469;-76
2023/06/01 04:23:03;;;;;;;11.27;6.90;;;14.50;1.00;;;;;;4982637;28;21138;-75
2023/06/01 04:25:32;;;;;;;11.87;7.13;;;14.50;1.00;;;;;;4983691;28;20488;-76
2023/06/01 04:27:59;;;;;;;10.23;7.30;;;14.50;1.00;;;;;;4983237;28;20483;-76
2023/06/01 04:30:26;;;;;;;10.67;8.10;;;14.40;1.00;;;;;;4986017;28;20471;-75
2023/06/01 04:32:53;;;;;;;12.53;7.70;;;14.40;1.00;;;;;;4982822;28;20596;-77
2023/06/01 04:35:20;;;;;;;11.87;7.57;;;14.30;1.00;;;;;;4985135;28;20557;-75
2023/06/01 04:37:48;;;;;;;14.87;9.00;;;14.30;1.00;;;;;;4984747;28;20494;-76
2023/06/01 04:40:16;;;;;;;9.70;7.67;;;14.20;1.00;;;;;;4980873;28;21030;-75
2023/06/01 04:42:48;;;;;;;16.20;9.03;;;14.20;1.00;;;;;;4984104;28;20540;-75
2023/06/01 04:45:16;;;;;;;13.60;8.77;;;14.20;1.00;;;;;;4985370;28;20450;-75
2023/06/01 04:47:46;;;;;;;12.53;8.60;;;14.20;1.00;;;;;;4983529;28;20486;-75
2023/06/01 04:50:15;;;;;;;12.37;8.00;;;14.10;1.00;;;;;;4982955;28;20521;-75
2023/06/01 04:52:43;;;;;;;11.10;9.10;;;14.00;1.00;;;;;;4984748;28;20463;-74
2023/06/01 04:55:13;;;;;;;12.43;9.20;;;14.10;1.00;;;;;;4984091;28;20478;-76
2023/06/01 04:57:42;;;;;;;15.63;9.50;;;14.20;1.00;;;;;;4979127;28;20476;-77
2023/06/01 05:00:12;;;;;;;14.40;9.70;;;14.20;1.00;;;;;;4982397;28;20441;-77
2023/06/01 05:02:40;;;;;;;11.97;9.53;;;14.30;1.00;;;;;;4984684;28;20427;-76
2023/06/01 05:05:08;;;;;;;14.43;11.00;;;14.40;1.00;;;;;;4986551;28;20537;-75
2023/06/01 05:07:36;;;;;;;12.50;8.97;;;14.40;1.00;;;;;;4981368;28;20472;-76
2023/06/01 05:10:05;;;;;;;10.33;9.07;;;14.30;1.00;;;;;;4983273;28;20566;-77
2023/06/01 05:12:34;;;;;;;17.40;9.30;;;14.30;1.00;;;;;;4977507;28;20870;-76
2023/06/01 05:15:05;;;;;;;15.03;10.10;;;14.30;1.00;;;;;;4984947;28;20852;-76
2023/06/01 05:17:32;;;;;;;12.07;8.90;;;14.40;1.00;;;;;;4985502;28;20506;-77
2023/06/01 05:19:59;;;;;;;15.93;11.07;;;14.50;1.00;;;;;;4984618;28;21098;-76
2023/06/01 05:22:26;;;;;;;12.77;9.37;;;14.60;1.00;;;;;;4985554;28;20462;-76
2023/06/01 05:24:55;;;;;;;16.00;10.60;;;14.60;1.00;;;;;;4978147;28;20603;-78
2023/06/01 05:27:22;;;;;;;13.97;10.17;;;14.60;1.00;;;;;;4986022;28;20498;-76
2023/06/01 05:29:50;;;;;;;17.40;14.13;;;14.60;1.00;;;;;;4985988;28;20494;-77
2023/06/01 05:32:17;;;;;;;13.30;9.40;;;14.50;1.00;;;;;;4984095;28;20504;-78
2023/06/01 05:34:44;;;;;;;15.37;11.90;;;14.50;1.00;;;;;;4983494;28;20487;-77
2023/06/01 05:37:11;;;;;;;15.13;13.57;;;14.40;1.00;;;;;;4985375;28;20576;-76
2023/06/01 05:39:38;;;;;;;15.43;13.83;;;14.40;1.00;;;;;;4991644;28;21279;-77
2023/06/01 05:42:06;;;;;;;15.80;14.33;;;14.30;1.00;;;;;;4990878;28;20968;-77
2023/06/01 05:44:33;;;;;;;19.57;14.77;;;14.40;1.00;;;;;;4991693;28;20533;-76
2023/06/01 05:47:02;;;;;;;15.47;13.97;;;14.40;1.00;;;;;;4992982;28;20501;-77
2023/06/01 05:49:31;;;;;;;12.97;11.60;;;14.30;1.00;;;;;;4992363;28;20485;-77
2023/06/01 05:51:58;;;;;;;14.00;10.77;;;14.40;1.00;;;;;;4990741;28;21485;-78
2023/06/01 05:54:24;;;;;;;11.80;10.60;;;14.40;1.00;;;;;;4996111;28;20568;-78
2023/06/01 05:56:51;;;;;;;14.63;9.97;;;14.30;1.00;;;;;;4989761;28;20478;-77
2023/06/01 05:59:18;;;;;;;17.00;10.40;;;14.20;1.00;;;;;;4992011;28;20438;-76
2023/06/01 06:01:45;;;;;;;12.60;10.37;;;14.20;1.00;;;;;;4993515;28;20564;-78
2023/06/01 06:04:14;;;;;;;18.93;16.73;;;14.40;1.00;;;;;;4990192;28;20496;-77
2023/06/01 06:06:41;;;;;;;14.20;10.53;;;14.40;1.00;;;;;;4994035;28;20854;-77
2023/06/01 06:09:09;;;;;;;11.23;9.23;;;14.50;1.00;;;;;;5000728;28;20458;-76
2023/06/01 06:11:38;;;;;;;12.97;9.00;;;14.60;1.00;;;;;;4989995;28;20497;-77
2023/06/01 06:14:05;;;;;;;11.73;7.97;;;14.80;1.00;;;;;;4990921;28;21001;-76
2023/06/01 06:16:32;;;;;;;10.67;8.33;;;14.90;1.00;;;;;;4991909;28;20473;-77
2023/06/01 06:18:58;;;;;;;11.93;8.63;;;15.00;1.00;;;;;;4991643;28;20589;-76
2023/06/01 06:21:27;;;;;;;9.60;7.97;;;15.20;1.00;;;;;;4987949;28;20984;-78
2023/06/01 06:23:58;;;;;;;14.37;8.80;;;15.20;1.00;;;;;;4987086;28;20481;-77
2023/06/01 06:26:27;;;;;;;13.63;8.33;;;15.30;1.00;;;;;;4991265;28;20516;-76
2023/06/01 06:28:53;;;;;;;11.33;8.63;;;15.40;1.00;;;;;;4992263;28;20435;-77
2023/06/01 06:31:21;;;;;;;11.80;9.10;;;15.50;1.00;;;;;;4990806;28;20985;-77
2023/06/01 06:33:48;;;;;;;14.77;11.60;;;15.50;1.00;;;;;;4986328;28;20542;-77
2023/06/01 06:36:15;;;;;;;12.70;8.60;;;15.60;1.00;;;;;;4990620;28;20541;-76
2023/06/01 06:38:44;;;;;;;14.80;7.77;;;15.80;1.00;;;;;;4987660;28;20515;-75
2023/06/01 06:41:11;;;;;;;13.70;8.00;;;15.90;1.00;;;;;;4987617;28;20462;-77
2023/06/01 06:43:38;;;;;;;10.67;7.00;;;16.00;1.00;;;;;;4990975;28;20518;-77
2023/06/01 06:46:05;;;;;;;8.00;7.20;;;16.10;1.00;;;;;;4991583;28;20439;-78
2023/06/01 06:48:32;;;;;;;7.80;6.77;;;16.20;1.00;;;;;;4992519;28;20462;-78
2023/06/01 06:50:59;;;;;;;8.63;7.60;;;16.30;1.00;;;;;;4988381;28;20910;-77
2023/06/01 06:53:26;;;;;;;9.50;7.40;;;16.30;1.00;;;;;;4989636;28;21002;-77
2023/06/01 06:55:54;;;;;;;9.87;7.47;;;16.40;1.00;;;;;;4991626;28;20576;-78
2023/06/01 06:58:21;;;;;;;14.33;7.70;;;16.40;1.00;;;;;;4987614;28;20519;-77
2023/06/01 07:00:48;;;;;;;12.63;8.10;;;16.20;1.00;;;;;;4987607;28;20858;-77
2023/06/01 07:03:16;;;;;;;11.70;7.93;;;16.20;1.00;;;;;;4988192;28;20427;-77
2023/06/01 07:05:45;;;;;;;10.13;7.27;;;16.10;1.00;;;;;;4987380;28;20486;-77
2023/06/01 07:08:12;;;;;;;13.77;7.30;;;16.20;1.00;;;;;;4991058;28;20450;-76
2023/06/01 07:10:39;;;;;;;8.97;7.30;;;16.10;1.00;;;;;;4988920;28;20683;-76
2023/06/01 07:13:07;;;;;;;12.70;7.87;;;16.00;1.00;;;;;;4989966;28;20597;-77
2023/06/01 07:15:34;;;;;;;8.33;7.17;;;16.10;1.00;;;;;;4988664;28;20479;-77
2023/06/01 07:18:01;;;;;;;11.87;8.10;;;16.20;1.00;;;;;;4991732;28;21351;-78
2023/06/01 07:20:28;;;;;;;8.70;6.43;;;16.20;1.00;;;;;;4985843;28;20506;-76
2023/06/01 07:22:55;;;;;;;9.83;6.87;;;16.20;1.00;;;;;;4989696;28;20463;-77
2023/06/01 07:25:22;;;;;;;12.80;7.33;;;16.10;1.00;;;;;;4989362;28;20522;-77
2023/06/01 07:27:49;;;;;;;11.80;7.70;;;16.10;1.00;;;;;;4988248;28;20529;-76
2023/06/01 07:30:17;;;;;;;12.17;8.13;;;16.20;1.00;;;;;;4988758;28;21571;-77
2023/06/01 07:32:45;;;;;;;12.40;7.83;;;16.20;1.00;;;;;;4987934;28;20462;-77
2023/06/01 07:35:12;;;;;;;11.67;7.40;;;16.30;1.00;;;;;;4989566;28;20487;-77
2023/06/01 07:37:38;;;;;;;11.17;7.13;;;16.30;1.00;;;;;;4991046;28;20473;-77
2023/06/01 07:40:07;;;;;;;10.00;7.33;;;16.30;1.00;;;;;;4991182;28;21029;-77
2023/06/01 07:42:34;;;;;;;7.93;6.30;;;16.30;1.00;;;;;;4987878;28;20463;-77
2023/06/01 07:45:02;;;;;;;12.27;7.77;;;16.40;1.00;;;;;;4985874;28;20563;-77
2023/06/01 07:47:30;;;;;;;11.47;7.70;;;16.30;1.00;;;;;;4990575;28;20467;-77
2023/06/01 07:49:57;;;;;;;8.10;7.27;;;16.50;1.00;;;;;;4987165;28;20464;-76
2023/06/01 07:52:24;;;;;;;12.07;7.37;;;16.70;1.00;;;;;;4990895;28;20542;-76
2023/06/01 07:54:51;;;;;;;7.63;6.77;;;16.80;1.00;;;;;;4991271;28;20966;-76
2023/06/01 07:57:20;;;;;;;7.90;7.10;;;16.90;1.00;;;;;;4986249;28;20525;-76
2023/06/01 07:59:47;;;;;;;9.17;7.70;;;16.80;1.00;;;;;;4990150;28;20597;-77
2023/06/01 08:02:14;;;;;;;8.43;7.30;;;16.60;1.00;;;;;;4990766;28;20462;-76
2023/06/01 08:04:44;;;;;;;8.80;6.80;;;16.20;1.00;;;;;;4988231;28;20475;-75
2023/06/01 08:07:12;;;;;;;9.63;7.10;;;16.00;1.00;;;;;;4988324;28;21373;-76
2023/06/01 08:09:39;;;;;;;10.48;7.45;;;16.10;1.00;;;;;;4985541;28;20435;-77
2023/06/01 08:12:07;;;;;;;10.43;6.60;;;16.30;1.00;;;;;;4989048;28;20244;-78
2023/06/01 08:14:33;;;;;;;9.93;6.10;;;16.20;1.00;;;;;;4989488;28;20494;-77
2023/06/01 08:17:02;;;;;;;9.27;6.70;;;16.30;1.00;;;;;;4987744;28;20480;-77
2023/06/01 08:19:29;;;;;;;9.57;6.97;;;16.20;1.00;;;;;;4989277;28;20484;-76
2023/06/01 08:21:58;;;;;;;7.40;6.40;;;16.20;1.00;;;;;;4985975;28;20902;-76
2023/06/01 08:24:25;;;;;;;7.40;6.17;;;16.30;1.00;;;;;;4988377;28;20548;-76
2023/06/01 08:26:56;;;;;;;9.10;6.37;;;16.40;1.00;;;;;;4990269;28;20494;-77
2023/06/01 08:29:23;;;;;;;9.10;6.67;;;16.50;1.00;;;;;;4987907;28;20557;-77
2023/06/01 08:31:50;;;;;;;8.80;6.60;;;16.50;1.00;;;;;;4986696;28;20482;-77
2023/06/01 08:34:17;;;;;;;13.10;7.00;;;16.60;1.00;;;;;;4990033;28;20525;-77
2023/06/01 08:36:44;;;;;;;8.30;6.73;;;16.60;1.00;;;;;;4988226;28;20518;-78
2023/06/01 08:39:23;;;;;;;7.00;6.33;;;16.60;1.00;;;;;;4988767;28;21264;-78
2023/06/01 08:42:00;;;;;;;7.10;6.37;;;16.60;1.00;;;;;;4989341;28;20451;-78
2023/06/01 08:44:29;;;;;;;7.93;6.77;;;16.60;1.00;;;;;;4989176;28;20480;-76
2023/06/01 08:46:56;;;;;;;8.20;6.13;;;16.80;1.00;;;;;;4991166;28;20451;-77
2023/06/01 08:49:26;;;;;;;8.87;6.00;;;17.00;1.00;;;;;;4989132;28;20470;-76
2023/06/01 08:51:57;;;;;;;11.70;7.37;;;17.10;1.00;;;;;;4987325;28;20503;-79
2023/06/01 08:54:26;;;;;;;7.33;6.63;;;17.30;1.00;;;;;;4985612;28;20470;-77
2023/06/01 08:56:54;;;;;;;12.67;8.10;;;17.40;1.00;;;;;;4992383;28;20466;-77
2023/06/01 08:59:21;;;;;;;9.47;7.63;;;17.60;1.00;;;;;;4989621;28;20530;-78
2023/06/01 09:01:49;;;;;;;9.93;7.63;;;17.80;1.00;;;;;;4991642;28;20543;-78
2023/06/01 09:04:17;;;;;;;10.17;6.70;;;18.00;1.00;;;;;;4990201;28;20473;-77
2023/06/01 09:06:45;;;;;;;6.80;6.17;;;18.10;1.00;;;;;;4988818;28;20874;-78
2023/06/01 09:09:14;;;;;;;8.03;7.07;;;18.20;1.00;;;;;;4990286;28;20485;-77
2023/06/01 09:11:42;;;;;;;12.97;7.90;;;18.30;1.00;;;;;;4990577;28;20485;-76
2023/06/01 09:14:22;;;;;;;13.20;7.00;;;18.40;1.00;;;;;;4990727;28;20538;-76
2023/06/01 09:16:49;;;;;;;10.60;6.80;;;18.50;1.00;;;;;;4990986;28;20491;-78
2023/06/01 09:19:18;;;;;;;11.23;7.07;;;18.80;1.00;;;;;;4992903;28;20488;-78
2023/06/01 09:21:57;;;;;;;7.17;6.30;;;19.10;1.00;;;;;;4992645;28;20533;-78
2023/06/01 09:24:25;;;;;;;8.70;6.07;;;19.40;1.00;;;;;;4989188;28;20567;-77
2023/06/01 09:27:01;;;;;;;9.00;6.30;;;19.50;1.00;;;;;;4990204;28;20532;-78
2023/06/01 09:29:28;;;;;;;6.40;5.80;;;19.70;1.00;;;;;;4988614;28;20539;-78
2023/06/01 09:31:55;;;;;;;9.20;5.90;;;20.00;1.00;;;;;;4988603;28;20569;-77
2023/06/01 09:34:23;;;;;;;8.40;6.10;;;20.70;1.00;;;;;;4991592;28;20453;-76
2023/06/01 09:36:52;;;;;;;6.17;5.60;;;21.70;1.00;;;;;;4987511;28;20479;-76
2023/06/01 09:39:22;;;;;;;7.00;6.07;;;23.00;1.00;;;;;;4983690;28;20471;-76
2023/06/01 09:41:53;;;;;;;7.43;5.53;;;24.40;1.00;;;;;;4990989;28;20468;-77
2023/06/01 09:44:27;;;;;;;9.63;6.37;;;25.30;1.00;;;;;;4990097;28;20990;-76
2023/06/01 09:46:56;;;;;;;11.80;6.63;;;26.10;1.00;;;;;;4989849;28;20459;-77
2023/06/01 09:49:25;;;;;;;5.47;4.97;;;26.80;1.00;;;;;;4990604;28;20464;-77
2023/06/01 09:51:53;;;;;;;7.20;5.27;;;27.40;1.00;;;;;;4989764;28;20464;-78
2023/06/01 09:54:26;;;;;;;6.93;6.23;;;27.90;1.00;;;;;;4992234;28;20513;-78
2023/06/01 09:56:55;;;;;;;7.17;5.23;;;28.30;1.00;;;;;;4989887;28;20472;-76
2023/06/01 09:59:23;;;;;;;6.97;5.63;;;28.60;1.00;;;;;;4990405;28;20496;-77
2023/06/01 10:01:55;;;;;;;7.23;6.60;;;29.10;1.00;;;;;;4984781;28;20473;-77
2023/06/01 10:04:24;;;;;;;7.20;6.30;;;29.10;1.00;;;;;;4987622;28;20547;-78
2023/06/01 10:06:53;;;;;;;10.60;6.20;;;29.00;1.00;;;;;;4991150;28;20461;-79
2023/06/01 10:09:22;;;;;;;5.40;4.70;;;29.40;1.00;;;;;;4989685;28;21801;-77
2023/06/01 10:11:52;;;;;;;7.00;5.83;;;29.70;1.00;;;;;;4991851;28;20550;-77
2023/06/01 10:14:21;;;;;;;10.20;6.80;;;29.60;1.00;;;;;;4989095;28;20478;-79
2023/06/01 10:16:51;;;;;;;6.50;5.90;;;29.70;1.00;;;;;;4989572;28;20466;-78
2023/06/01 10:19:19;;;;;;;10.27;6.87;;;29.80;1.00;;;;;;4991183;28;20459;-78
2023/06/01 10:21:47;;;;;;;9.27;7.60;;;30.30;1.00;;;;;;4990075;28;20451;-78
2023/06/01 10:24:15;;;;;;;6.23;5.70;;;30.70;1.00;;;;;;4988538;28;20471;-78
2023/06/01 10:26:50;;;;;;;7.07;6.37;;;31.20;1.00;;;;;;4989045;28;20473;-78
2023/06/01 10:29:19;;;;;;;7.70;6.93;;;31.60;1.00;;;;;;4989683;28;21066;-78
2023/06/01 10:31:47;;;;;;;8.50;6.73;;;31.90;1.00;;;;;;4989497;28;20482;-77
2023/06/01 10:34:16;;;;;;;6.40;5.43;;;32.00;1.00;;;;;;4987975;28;20470;-78
2023/06/01 10:37:17;;;;;;;11.70;7.80;;;32.10;1.00;;;;;;4990241;28;20470;-78
2023/06/01 10:39:44;;;;;;;8.00;7.30;;;32.40;1.00;;;;;;4990883;28;20494;-78
2023/06/01 10:42:39;;;;;;;10.00;7.70;;;32.00;1.00;;;;;;4991179;28;20458;-78
2023/06/01 10:45:24;;;;;;;8.00;7.33;;;31.50;1.00;;;;;;4990999;28;20545;-77
2023/06/01 10:47:53;;;;;;;9.20;8.40;;;32.00;1.00;;;;;;4991728;28;20473;-77
2023/06/01 10:50:20;;;;;;;10.20;8.67;;;32.80;1.00;;;;;;4992720;28;20455;-76
2023/06/01 10:52:47;;;;;;;7.40;6.70;;;33.20;1.00;;;;;;4987747;28;20477;-77
2023/06/01 10:55:27;;;;;;;8.57;7.77;;;33.70;1.00;;;;;;4991092;28;20482;-78
2023/06/01 10:58:26;;;;;;;8.30;7.47;;;34.30;1.00;;;;;;4988981;28;20455;-78
2023/06/01 11:00:55;;;;;;;9.87;9.00;;;34.50;1.00;;;;;;4988514;28;20924;-77
2023/06/01 11:03:45;;;;;;;8.90;8.17;;;34.60;1.00;;;;;;4989974;28;20518;-78
2023/06/01 11:06:26;;;;;;;13.17;8.57;;;34.80;1.00;;;;;;4988422;28;20470;-78
2023/06/01 11:08:58;;;;;;;8.20;7.50;;;34.90;1.00;;;;;;4986937;28;20463;-77
2023/06/01 11:11:58;;;;;;;10.10;9.30;;;34.90;1.00;;;;;;4990812;28;20476;-77
2023/06/01 11:14:26;;;;;;;9.60;8.70;;;35.40;1.00;;;;;;4991353;28;20870;-77
2023/06/01 11:16:55;;;;;;;10.07;9.07;;;35.40;1.00;;;;;;4983679;28;20554;-77
2023/06/01 11:19:25;;;;;;;9.27;8.47;;;35.60;1.00;;;;;;4973159;28;21002;-77
2023/06/01 11:22:01;;;;;;;10.17;9.40;;;35.60;1.00;;;;;;4990421;28;20473;-77
2023/06/01 11:24:34;;;;;;;11.40;10.20;;;35.80;1.00;;;;;;4986181;28;20471;-77
2023/06/01 11:27:06;;;;;;;11.13;9.00;;;36.10;1.00;;;;;;4988270;28;20459;-79
2023/06/01 11:29:34;;;;;;;8.90;8.20;;;36.30;1.00;;;;;;4992972;28;20439;-78
2023/06/01 11:32:03;;;;;;;9.60;8.80;;;36.10;1.00;;;;;;4987059;28;20462;-78
2023/06/01 11:34:34;;;;;;;8.93;8.23;;;36.30;1.00;;;;;;4985166;28;20560;-78
2023/06/01 11:37:02;;;;;;;9.20;8.50;;;36.90;1.00;;;;;;4974283;28;20509;-77
2023/06/01 11:39:30;;;;;;;11.60;8.30;;;37.30;1.00;;;;;;4986370;28;20913;-78
2023/06/01 11:42:06;;;;;;;10.00;9.30;;;37.10;1.00;;;;;;4978649;28;20959;-78
2023/06/01 11:44:34;;;;;;;9.40;8.70;;;37.10;1.00;;;;;;4983146;28;20518;-78
2023/06/01 11:47:01;;;;;;;10.50;9.07;;;37.00;1.00;;;;;;4978304;28;20464;-78
2023/06/01 11:49:28;;;;;;;8.87;8.17;;;37.40;1.00;;;;;;4981992;28;20558;-77
2023/06/01 11:51:57;;;;;;;8.93;8.23;;;37.40;1.00;;;;;;4977725;28;20467;-78
2023/06/01 11:54:28;;;;;;;10.17;9.23;;;36.70;1.00;;;;;;4982606;28;20530;-77
2023/06/01 11:56:56;;;;;;;9.23;8.20;;;36.50;1.00;;;;;;4978046;28;20491;-79
2023/06/01 11:59:24;;;;;;;8.90;8.10;;;36.70;1.00;;;;;;4983407;28;20956;-77
2023/06/01 12:01:53;;;;;;;9.60;8.63;;;36.60;1.00;;;;;;4984117;28;20590;-77
2023/06/01 12:04:23;;;;;;;8.87;8.17;;;36.40;1.00;;;;;;4983134;28;20469;-76
2023/06/01 12:06:51;;;;;;;7.87;7.17;;;37.20;1.00;;;;;;4976672;28;20892;-78
2023/06/01 12:09:20;;;;;;;9.93;9.03;;;37.40;1.00;;;;;;4963942;28;20478;-76
2023/06/01 12:11:50;;;;;;;8.53;7.83;;;37.60;1.00;;;;;;4979423;28;20582;-78
2023/06/01 12:14:17;;;;;;;11.93;10.83;;;37.60;1.00;;;;;;4981843;28;20911;-80
2023/06/01 12:16:58;;;;;;;8.90;8.10;;;37.80;1.00;;;;;;4982529;28;20824;-79
2023/06/01 12:19:26;;;;;;;7.93;7.13;;;37.70;1.00;;;;;;4984249;28;20551;-78
2023/06/01 12:21:56;;;;;;;7.13;6.47;;;37.70;1.00;;;;;;4981554;28;20950;-77
2023/06/01 12:24:34;;;;;;;6.97;6.37;;;38.30;1.00;;;;;;4980585;28;20899;-79
2023/06/01 12:27:02;;;;;;;7.27;6.67;;;38.40;1.00;;;;;;4978511;28;20554;-77
2023/06/01 12:29:37;;;;;;;9.90;7.30;;;38.00;1.00;;;;;;4978397;28;21225;-77
2023/06/01 12:32:05;;;;;;;7.93;7.17;;;38.00;1.00;;;;;;4982628;28;20605;-77
2023/06/01 12:34:32;;;;;;;7.13;6.53;;;38.10;1.00;;;;;;4983591;28;20857;-76
2023/06/01 12:36:59;;;;;;;7.03;6.20;;;38.20;1.00;;;;;;4977209;28;20929;-76
2023/06/01 12:39:41;;;;;;;6.73;6.13;;;38.40;1.00;;;;;;4984272;28;20558;-78
2023/06/01 12:42:10;;;;;;;7.80;7.00;;;38.10;1.00;;;;;;4985090;28;21676;-78
2023/06/01 12:44:39;;;;;;;7.47;6.77;;;37.60;1.00;;;;;;4982646;28;20558;-81
2023/06/01 12:47:08;;;;;;;7.30;6.60;;;37.70;1.00;;;;;;4982666;28;21013;-78
2023/06/01 12:49:37;;;;;;;6.90;6.27;;;38.10;1.00;;;;;;4982963;28;20485;-76
2023/06/01 12:52:05;;;;;;;6.83;6.23;;;38.20;1.00;;;;;;4980388;28;20485;-76
2023/06/01 12:54:32;;;;;;;6.77;6.17;;;38.60;1.00;;;;;;4985903;28;20447;-78
2023/06/01 12:57:01;;;;;;;7.57;6.97;;;38.50;1.00;;;;;;4981995;28;20989;-78
2023/06/01 12:59:28;;;;;;;7.90;7.10;;;38.50;1.00;;;;;;4978259;28;20463;-77
2023/06/01 13:01:55;;;;;;;8.30;7.57;;;38.40;1.00;;;;;;4973865;28;20463;-78